createdAt,value
2022-09-12T00:00:42.390Z,87.63
2022-09-12T00:03:08.740Z,87.77
2022-09-12T00:05:41.846Z,87.47
2022-09-12T00:08:08.716Z,87.76
2022-09-12T00:10:39.751Z,87.47
2022-09-12T00:13:07.050Z,87.31
2022-09-12T00:15:38.822Z,87.80
2022-09-12T00:18:05.364Z,87.48
2022-09-12T00:20:31.866Z,86.85
2022-09-12T00:22:58.250Z,87.02
2022-09-12T00:25:24.600Z,86.92
2022-09-12T00:27:50.998Z,86.92
2022-09-12T00:30:17.545Z,87.95
2022-09-12T00:32:44.558Z,87.44
2022-09-12T00:35:11.442Z,88.37
2022-09-12T00:37:38.035Z,88.15
2022-09-12T00:40:04.723Z,87.60
2022-09-12T00:42:31.123Z,87.36
2022-09-12T00:44:57.430Z,87.98
2022-09-12T00:47:28.213Z,87.32
2022-09-12T00:49:56.393Z,87.64
2022-09-12T00:52:27.768Z,86.91
2022-09-12T00:55:02.557Z,87.26
2022-09-12T00:57:38.194Z,87.46
2022-09-12T01:00:16.748Z,87.46
2022-09-12T01:02:45.360Z,87.74
2022-09-12T01:05:13.441Z,87.68
2022-09-12T01:07:40.719Z,87.30
2022-09-12T01:10:09.626Z,87.32
2022-09-12T01:12:39.650Z,87.33
2022-09-12T01:15:06.623Z,87.15
2022-09-12T01:17:59.062Z,87.38
2022-09-12T01:20:53.469Z,87.04
2022-09-12T01:23:31.066Z,86.98
2022-09-12T01:26:27.778Z,86.73
2022-09-12T01:29:09.202Z,87.29
2022-09-12T01:31:49.985Z,87.67
2022-09-12T01:34:28.053Z,87.15
2022-09-12T01:37:16.988Z,87.09
2022-09-12T01:39:57.658Z,87.07
2022-09-12T01:42:40.291Z,87.17
2022-09-12T01:45:18.664Z,86.87
2022-09-12T01:47:51.086Z,87.14
2022-09-12T01:50:40.353Z,87.54
2022-09-12T01:53:12.763Z,87.60
2022-09-12T01:56:00.013Z,87.68
2022-09-12T01:58:38.120Z,87.56
2022-09-12T02:01:16.365Z,87.48
2022-09-12T02:04:17.879Z,86.56
2022-09-12T02:06:54.821Z,87.00
2022-09-12T02:09:29.531Z,87.01
2022-09-12T02:11:59.010Z,86.80
2022-09-12T02:14:29.266Z,87.07
2022-09-12T02:17:00.327Z,86.87
2022-09-12T02:19:35.868Z,86.99
2022-09-12T02:22:04.827Z,86.90
2022-09-12T02:24:40.313Z,86.63
2022-09-12T02:27:21.360Z,87.28
2022-09-12T02:29:48.839Z,86.90
2022-09-12T02:32:38.458Z,87.18
2022-09-12T02:35:08.357Z,87.13
2022-09-12T02:38:00.996Z,87.17
2022-09-12T02:40:28.286Z,87.58
2022-09-12T02:42:55.112Z,87.73
2022-09-12T02:45:23.281Z,87.20
2022-09-12T02:48:13.505Z,87.10
2022-09-12T02:50:41.703Z,87.58
2022-09-12T02:53:09.307Z,87.69
2022-09-12T02:55:37.063Z,87.72
2022-09-12T02:58:06.418Z,87.55
2022-09-12T03:00:56.885Z,87.30
2022-09-12T03:03:48.197Z,87.58
2022-09-12T03:06:35.039Z,87.31
2022-09-12T03:09:10.228Z,87.82
2022-09-12T03:12:03.284Z,87.85
2022-09-12T03:15:01.651Z,87.73
2022-09-12T03:17:42.003Z,87.78
2022-09-12T03:20:17.044Z,87.70
2022-09-12T03:22:54.711Z,87.60
2022-09-12T03:25:32.642Z,87.61
2022-09-12T03:28:10.014Z,87.91
2022-09-12T03:30:41.635Z,87.65
2022-09-12T03:33:12.152Z,87.71
2022-09-12T03:35:39.076Z,87.73
2022-09-12T03:38:07.978Z,87.95
2022-09-12T03:40:35.197Z,87.98
2022-09-12T03:43:01.842Z,88.08
2022-09-12T03:45:28.292Z,88.13
2022-09-12T03:47:54.720Z,87.87
2022-09-12T03:50:21.199Z,87.62
2022-09-12T03:52:47.593Z,88.28
2022-09-12T03:55:14.232Z,87.94
2022-09-12T03:57:40.626Z,88.00
2022-09-12T04:00:08.714Z,87.90
2022-09-12T04:02:35.562Z,88.27
2022-09-12T04:05:02.038Z,88.35
2022-09-12T04:07:28.931Z,88.23
2022-09-12T04:09:56.187Z,88.63
2022-09-12T04:12:23.051Z,88.40
2022-09-12T04:14:49.591Z,88.60
2022-09-12T04:17:16.098Z,88.13
2022-09-12T04:19:42.458Z,88.62
2022-09-12T04:22:08.870Z,88.39
2022-09-12T04:24:35.249Z,88.48
2022-09-12T04:27:05.968Z,88.38
2022-09-12T04:29:35.628Z,87.87
2022-09-12T04:32:03.112Z,88.38
2022-09-12T04:34:32.003Z,88.73
2022-09-12T04:36:58.636Z,88.77
2022-09-12T04:39:25.241Z,89.21
2022-09-12T04:41:51.935Z,88.89
2022-09-12T04:44:18.333Z,88.85
2022-09-12T04:46:46.595Z,88.81
2022-09-12T04:49:16.138Z,88.80
2022-09-12T04:51:43.465Z,88.49
2022-09-12T04:54:16.014Z,88.94
2022-09-12T04:56:44.945Z,88.60
2022-09-12T04:59:13.017Z,88.89
2022-09-12T05:01:39.731Z,89.21
2022-09-12T05:04:06.224Z,88.96
2022-09-12T05:06:35.367Z,89.08
2022-09-12T05:09:03.882Z,89.57
2022-09-12T05:12:02.069Z,89.26
2022-09-12T05:14:19.428Z,89.11
2022-09-12T05:16:49.220Z,89.69
2022-09-12T05:19:16.367Z,89.57
2022-09-12T05:21:42.726Z,89.60
2022-09-12T05:24:10.815Z,89.30
2022-09-12T05:26:37.198Z,89.44
2022-09-12T05:29:04.524Z,89.58
2022-09-12T05:31:30.918Z,89.68
2022-09-12T05:33:57.653Z,89.63
2022-09-12T05:36:27.020Z,89.50
2022-09-12T05:38:53.924Z,89.73
2022-09-12T05:41:25.095Z,89.66
2022-09-12T05:43:56.868Z,89.69
2022-09-12T05:46:26.376Z,89.65
2022-09-12T05:48:56.494Z,89.50
2022-09-12T05:51:28.521Z,89.59
2022-09-12T05:53:59.958Z,89.50
2022-09-12T05:56:29.028Z,89.58
2022-09-12T05:58:58.844Z,89.81
2022-09-12T06:01:27.296Z,89.83
2022-09-12T06:03:56.091Z,89.90
2022-09-12T06:06:25.110Z,89.91
2022-09-12T06:08:53.429Z,89.90
2022-09-12T06:11:31.694Z,89.97
2022-09-12T06:13:59.067Z,90.27
2022-09-12T06:16:28.119Z,90.16
2022-09-12T06:18:56.736Z,90.15
2022-09-12T06:21:25.300Z,90.33
2022-09-12T06:23:53.147Z,90.25
2022-09-12T06:26:23.147Z,90.03
2022-09-12T06:28:50.383Z,89.53
2022-09-12T06:31:19.518Z,89.54
2022-09-12T06:33:49.166Z,89.27
2022-09-12T06:36:26.678Z,86.83
2022-09-12T06:39:04.998Z,86.73
2022-09-12T06:41:32.178Z,85.49
2022-09-12T06:43:59.637Z,85.98
2022-09-12T06:46:26.922Z,82.10
2022-09-12T06:48:56.212Z,80.63
2022-09-12T06:51:23.066Z,81.58
2022-09-12T06:53:49.684Z,80.62
2022-09-12T06:56:19.990Z,80.05
2022-09-12T06:58:48.019Z,80.69
2022-09-12T07:01:33.709Z,80.19
2022-09-12T07:04:02.934Z,79.21
2022-09-12T07:06:34.876Z,78.98
2022-09-12T07:09:04.078Z,78.37
2022-09-12T07:11:33.460Z,78.53
2022-09-12T07:14:02.151Z,77.77
2022-09-12T07:16:30.269Z,77.59
2022-09-12T07:19:01.956Z,78.30
2022-09-12T07:21:29.271Z,78.33
2022-09-12T07:23:57.727Z,77.00
2022-09-12T07:26:27.422Z,76.72
2022-09-12T07:29:00.704Z,77.32
2022-09-12T07:31:39.506Z,77.29
2022-09-12T07:34:06.788Z,77.25
2022-09-12T07:36:33.711Z,77.07
2022-09-12T07:39:00.563Z,77.10
2022-09-12T07:41:28.966Z,76.81
2022-09-12T07:43:57.514Z,76.47
2022-09-12T07:46:25.943Z,75.83
2022-09-12T07:48:53.810Z,75.93
2022-09-12T07:51:21.254Z,75.64
2022-09-12T07:53:49.102Z,74.85
2022-09-12T07:56:16.457Z,75.63
2022-09-12T07:58:43.938Z,74.78
2022-09-12T08:01:14.924Z,74.72
2022-09-12T08:03:43.275Z,74.67
2022-09-12T08:06:20.995Z,74.21
2022-09-12T08:08:48.740Z,74.39
2022-09-12T08:11:17.426Z,74.28
2022-09-12T08:13:44.695Z,73.64
2022-09-12T08:16:14.724Z,73.09
2022-09-12T08:18:41.791Z,73.33
2022-09-12T08:21:14.181Z,72.73
2022-09-12T08:23:41.232Z,72.02
2022-09-12T08:26:08.233Z,72.09
2022-09-12T08:28:36.477Z,71.75
2022-09-12T08:31:12.886Z,71.13
2022-09-12T08:33:39.886Z,70.96
2022-09-12T08:36:11.731Z,69.86
2022-09-12T08:38:40.678Z,69.04
2022-09-12T08:41:39.435Z,67.68
2022-09-12T08:44:24.588Z,65.72
2022-09-12T08:47:09.876Z,65.11
2022-09-12T08:49:48.421Z,64.51
2022-09-12T08:52:25.448Z,63.69
2022-09-12T08:54:52.058Z,61.33
2022-09-12T08:57:18.477Z,62.66
2022-09-12T08:59:46.245Z,63.58
2022-09-12T09:02:45.819Z,62.26
2022-09-12T09:05:49.448Z,62.98
2022-09-12T09:08:40.096Z,61.85
2022-09-12T09:11:06.423Z,62.24
2022-09-12T09:14:13.000Z,61.82
2022-09-12T09:16:44.194Z,60.99
2022-09-12T09:19:20.021Z,61.34
2022-09-12T09:21:59.278Z,60.09
2022-09-12T09:24:34.087Z,60.12
2022-09-12T09:27:23.534Z,59.48
2022-09-12T09:29:55.934Z,58.14
2022-09-12T09:32:34.347Z,57.51
2022-09-12T09:35:03.004Z,56.14
2022-09-12T09:37:58.453Z,53.67
2022-09-12T09:40:46.953Z,52.58
2022-09-12T09:43:23.032Z,51.16
2022-09-12T09:45:51.835Z,50.63
2022-09-12T09:48:32.495Z,49.58
2022-09-12T09:51:02.052Z,49.51
2022-09-12T09:53:50.234Z,47.99
2022-09-12T09:56:49.326Z,48.86
2022-09-12T09:59:19.911Z,47.93
2022-09-12T10:01:48.068Z,48.12
2022-09-12T10:04:24.396Z,47.61
2022-09-12T10:06:56.226Z,47.28
2022-09-12T10:09:34.452Z,45.80
2022-09-12T10:12:20.171Z,45.62
2022-09-12T10:15:01.146Z,43.51
2022-09-12T10:17:46.270Z,42.93
2022-09-12T10:20:42.890Z,43.54
2022-09-12T10:23:29.394Z,43.51
2022-09-12T10:26:00.753Z,42.39
2022-09-12T10:28:39.930Z,41.33
2022-09-12T10:31:16.727Z,41.87
2022-09-12T10:33:52.488Z,42.02
2022-09-12T10:36:20.818Z,41.23
2022-09-12T10:38:57.422Z,41.32
2022-09-12T10:41:24.820Z,39.77
2022-09-12T10:43:51.292Z,40.71
2022-09-12T10:46:17.609Z,39.79
2022-09-12T10:48:47.694Z,38.98
2022-09-12T10:51:29.622Z,38.61
2022-09-12T10:53:59.287Z,37.27
2022-09-12T10:56:32.580Z,38.67
2022-09-12T10:59:01.958Z,37.24
2022-09-12T11:02:00.563Z,37.97
2022-09-12T11:04:42.037Z,39.00
2022-09-12T11:07:37.929Z,37.02
2022-09-12T11:10:36.748Z,36.43
2022-09-12T11:13:34.998Z,36.33
2022-09-12T11:16:13.536Z,35.89
2022-09-12T11:19:12.333Z,35.70
2022-09-12T11:22:11.862Z,34.85
2022-09-12T11:24:58.658Z,34.25
2022-09-12T11:28:00.207Z,33.94
2022-09-12T11:30:32.207Z,34.37
2022-09-12T11:33:42.708Z,33.95
2022-09-12T11:36:37.444Z,35.23
2022-09-12T11:39:12.825Z,35.14
2022-09-12T11:41:43.537Z,34.70
2022-09-12T11:44:22.327Z,33.12
2022-09-12T11:46:51.931Z,34.56
2022-09-12T11:49:31.374Z,34.38
2022-09-12T11:52:10.686Z,35.45
2022-09-12T11:55:12.500Z,35.61
2022-09-12T11:58:00.729Z,33.86
2022-09-12T12:00:35.242Z,33.54
2022-09-12T12:03:13.627Z,32.65
2022-09-12T12:05:49.552Z,32.58
2022-09-12T12:08:16.148Z,33.61
2022-09-12T12:10:49.837Z,31.94
2022-09-12T12:13:27.799Z,32.08
2022-09-12T12:16:05.377Z,31.48
2022-09-12T12:18:34.156Z,31.77
2022-09-12T12:21:29.681Z,33.05
2022-09-12T12:24:08.156Z,30.77
2022-09-12T12:26:44.554Z,31.48
2022-09-12T12:29:11.975Z,30.61
2022-09-12T12:32:16.179Z,30.85
2022-09-12T12:34:47.272Z,31.13
2022-09-12T12:37:19.522Z,30.42
2022-09-12T12:39:47.811Z,30.24
2022-09-12T12:42:32.546Z,30.56
2022-09-12T12:45:04.250Z,31.73
2022-09-12T12:47:41.836Z,30.50
2022-09-12T12:50:23.786Z,31.75
2022-09-12T12:53:06.854Z,31.25
2022-09-12T12:55:37.588Z,32.53
2022-09-12T12:58:05.749Z,33.00
2022-09-12T13:00:37.070Z,32.96
2022-09-12T13:03:06.612Z,32.56
2022-09-12T13:05:49.194Z,31.74
2022-09-12T13:08:18.812Z,31.50
2022-09-12T13:10:58.444Z,33.15
2022-09-12T13:13:32.052Z,31.56
2022-09-12T13:15:58.702Z,31.96
2022-09-12T13:18:39.342Z,32.56
2022-09-12T13:21:19.070Z,32.48
2022-09-12T13:24:00.725Z,32.87
2022-09-12T13:26:27.092Z,32.51
2022-09-12T13:29:29.271Z,34.63
2022-09-12T13:31:59.297Z,33.96
2022-09-12T13:34:33.661Z,34.35
2022-09-12T13:37:27.015Z,33.48
2022-09-12T13:40:32.088Z,33.12
2022-09-12T13:43:13.903Z,34.30
2022-09-12T13:45:41.507Z,34.78
2022-09-12T13:48:16.676Z,34.25
2022-09-12T13:50:53.572Z,34.28
2022-09-12T13:53:23.765Z,34.04
2022-09-12T13:55:53.845Z,31.57
2022-09-12T13:58:29.259Z,32.23
2022-09-12T14:01:14.514Z,32.92
2022-09-12T14:03:59.366Z,31.71
2022-09-12T14:06:27.777Z,30.48
2022-09-12T14:09:00.785Z,31.39
2022-09-12T14:11:29.514Z,32.29
2022-09-12T14:13:56.984Z,32.52
2022-09-12T14:16:28.953Z,32.63
2022-09-12T14:18:56.084Z,31.47
2022-09-12T14:21:28.547Z,32.15
2022-09-12T14:23:55.159Z,32.72
2022-09-12T14:26:22.531Z,31.92
2022-09-12T14:28:49.484Z,32.47
2022-09-12T14:31:30.414Z,33.27
2022-09-12T14:34:09.782Z,33.63
2022-09-12T14:36:42.123Z,33.23
2022-09-12T14:39:29.965Z,33.34
2022-09-12T14:42:16.249Z,33.37
2022-09-12T14:44:56.930Z,32.85
2022-09-12T14:47:33.320Z,33.44
2022-09-12T14:49:59.805Z,33.04
2022-09-12T14:52:30.017Z,33.03
2022-09-12T14:55:17.435Z,32.15
2022-09-12T14:57:45.171Z,32.92
2022-09-12T15:00:20.235Z,34.45
2022-09-12T15:02:48.458Z,34.39
2022-09-12T15:05:21.013Z,34.99
2022-09-12T15:07:50.240Z,35.04
2022-09-12T15:10:24.049Z,36.13
2022-09-12T15:12:51.327Z,35.60
2022-09-12T15:15:21.111Z,36.58
2022-09-12T15:17:47.493Z,36.05
2022-09-12T15:20:14.234Z,36.77
2022-09-12T15:22:41.908Z,37.95
2022-09-12T15:25:10.722Z,38.12
2022-09-12T15:27:40.741Z,37.34
2022-09-12T15:30:08.530Z,37.68
2022-09-12T15:32:34.977Z,38.43
2022-09-12T15:35:01.463Z,38.84
2022-09-12T15:37:28.267Z,39.09
2022-09-12T15:39:54.697Z,39.85
2022-09-12T15:42:28.158Z,39.45
2022-09-12T15:44:57.486Z,39.80
2022-09-12T15:47:26.158Z,40.06
2022-09-12T15:49:52.544Z,39.71
2022-09-12T15:52:19.171Z,40.58
2022-09-12T15:54:45.562Z,42.77
2022-09-12T15:57:11.961Z,43.46
2022-09-12T15:59:38.298Z,40.59
2022-09-12T16:02:04.778Z,42.91
2022-09-12T16:04:31.549Z,43.05
2022-09-12T16:06:58.025Z,45.85
2022-09-12T16:09:24.699Z,43.66
2022-09-12T16:11:51.717Z,43.59
2022-09-12T16:14:19.215Z,49.61
2022-09-12T16:16:52.151Z,46.53
2022-09-12T16:19:18.466Z,47.73
2022-09-12T16:21:44.921Z,44.23
2022-09-12T16:24:11.284Z,45.09
2022-09-12T16:26:37.941Z,49.45
2022-09-12T16:29:05.573Z,46.23
2022-09-12T16:31:31.979Z,46.51
2022-09-12T16:33:58.546Z,46.10
2022-09-12T16:36:24.981Z,49.41
2022-09-12T16:38:53.762Z,50.56
2022-09-12T16:41:22.517Z,55.61
2022-09-12T16:43:49.206Z,53.38
2022-09-12T16:46:19.080Z,58.66
2022-09-12T16:48:52.139Z,59.32
2022-09-12T16:51:21.993Z,61.13
2022-09-12T16:53:48.724Z,58.59
2022-09-12T16:56:15.647Z,55.41
2022-09-12T16:58:43.190Z,59.56
2022-09-12T17:01:15.557Z,53.05
2022-09-12T17:03:42.184Z,52.32
2022-09-12T17:06:27.364Z,58.90
2022-09-12T17:08:55.988Z,49.77
2022-09-12T17:11:26.829Z,55.48
2022-09-12T17:14:11.034Z,52.29
2022-09-12T17:16:39.859Z,51.34
2022-09-12T17:19:07.572Z,59.15
2022-09-12T17:21:35.228Z,57.77
2022-09-12T17:24:01.853Z,61.77
2022-09-12T17:26:28.210Z,63.06
2022-09-12T17:28:54.654Z,66.10
2022-09-12T17:31:21.026Z,65.80
2022-09-12T17:33:47.828Z,67.43
2022-09-12T17:36:16.528Z,67.00
2022-09-12T17:38:44.824Z,67.51
2022-09-12T17:41:18.901Z,67.88
2022-09-12T17:43:51.578Z,67.57
2022-09-12T17:46:19.353Z,68.82
2022-09-12T17:48:51.404Z,69.73
2022-09-12T17:51:17.776Z,69.30
2022-09-12T17:53:44.990Z,69.96
2022-09-12T17:56:12.040Z,70.83
2022-09-12T17:58:38.730Z,71.27
2022-09-12T18:01:28.807Z,71.48
2022-09-12T18:04:03.561Z,71.92
2022-09-12T18:06:30.716Z,71.77
2022-09-12T18:09:06.363Z,71.87
2022-09-12T18:11:33.469Z,72.23
2022-09-12T18:14:00.799Z,72.87
2022-09-12T18:16:28.492Z,73.01
2022-09-12T18:18:55.585Z,73.58
2022-09-12T18:21:22.041Z,74.86
2022-09-12T18:23:48.444Z,75.26
2022-09-12T18:26:15.169Z,74.28
2022-09-12T18:28:43.849Z,73.60
2022-09-12T18:31:13.723Z,74.02
2022-09-12T18:33:40.957Z,74.87
2022-09-12T18:36:09.739Z,75.30
2022-09-12T18:38:36.737Z,75.02
2022-09-12T18:41:05.322Z,75.18
2022-09-12T18:43:31.885Z,75.46
2022-09-12T18:46:04.024Z,75.21
2022-09-12T18:48:32.365Z,75.57
2022-09-12T18:51:03.510Z,76.04
2022-09-12T18:53:29.858Z,76.41
2022-09-12T18:56:10.220Z,76.30
2022-09-12T18:58:37.897Z,76.37
2022-09-12T19:01:22.071Z,76.62
2022-09-12T19:03:49.360Z,76.73
2022-09-12T19:06:19.269Z,76.78
2022-09-12T19:08:45.713Z,77.43
2022-09-12T19:11:13.130Z,77.25
2022-09-12T19:13:42.072Z,77.25
2022-09-12T19:16:11.520Z,77.32
2022-09-12T19:18:39.386Z,78.41
2022-09-12T19:21:08.358Z,77.65
2022-09-12T19:23:35.943Z,78.39
2022-09-12T19:26:07.633Z,77.31
2022-09-12T19:28:34.556Z,77.58
2022-09-12T19:31:05.494Z,77.37
2022-09-12T19:33:31.867Z,77.18
2022-09-12T19:36:04.264Z,77.40
2022-09-12T19:38:30.978Z,77.19
2022-09-12T19:41:12.286Z,77.81
2022-09-12T19:43:41.141Z,76.83
2022-09-12T19:46:07.865Z,76.93
2022-09-12T19:48:35.057Z,76.38
2022-09-12T19:51:02.754Z,75.71
2022-09-12T19:53:30.637Z,74.64
2022-09-12T19:56:01.393Z,76.03
2022-09-12T19:58:28.465Z,74.96
2022-09-12T20:00:55.961Z,74.65
2022-09-12T20:03:23.532Z,74.52
2022-09-12T20:05:49.903Z,74.49
2022-09-12T20:08:16.448Z,74.26
2022-09-12T20:10:42.865Z,74.63
2022-09-12T20:13:09.342Z,74.76
2022-09-12T20:15:35.989Z,75.76
2022-09-12T20:18:02.397Z,75.02
2022-09-12T20:20:28.788Z,75.17
2022-09-12T20:22:55.144Z,73.91
2022-09-12T20:25:21.657Z,75.15
2022-09-12T20:27:48.148Z,74.08
2022-09-12T20:30:15.079Z,74.80
2022-09-12T20:32:42.721Z,73.83
2022-09-12T20:35:09.858Z,74.83
2022-09-12T20:37:36.260Z,71.83
2022-09-12T20:40:04.566Z,73.55
2022-09-12T20:42:31.090Z,74.39
2022-09-12T20:44:57.511Z,74.17
2022-09-12T20:47:23.913Z,74.12
2022-09-12T20:49:50.277Z,74.91
2022-09-12T20:52:16.701Z,74.56
2022-09-12T20:54:43.014Z,69.08
2022-09-12T20:57:09.385Z,69.06
2022-09-12T20:59:39.260Z,69.29
2022-09-12T21:02:05.903Z,71.69
2022-09-12T21:04:32.325Z,71.21
2022-09-12T21:06:58.777Z,71.47
2022-09-12T21:09:25.150Z,71.42
2022-09-12T21:11:51.671Z,71.71
2022-09-12T21:14:17.983Z,68.17
2022-09-12T21:16:44.622Z,69.60
2022-09-12T21:19:10.977Z,70.19
2022-09-12T21:21:37.362Z,70.73
2022-09-12T21:24:04.395Z,68.31
2022-09-12T21:26:31.868Z,69.46
2022-09-12T21:28:58.561Z,63.52
2022-09-12T21:31:25.652Z,62.71
2022-09-12T21:33:52.318Z,65.12
2022-09-12T21:36:18.757Z,62.55
2022-09-12T21:38:45.112Z,62.92
2022-09-12T21:41:14.324Z,64.23
2022-09-12T21:43:41.425Z,62.28
2022-09-12T21:46:08.381Z,61.43
2022-09-12T21:48:35.598Z,61.24
2022-09-12T21:51:02.243Z,61.33
2022-09-12T21:53:28.660Z,60.63
2022-09-12T21:55:55.464Z,61.44
2022-09-12T21:58:21.901Z,61.77
2022-09-12T22:00:48.329Z,63.41
2022-09-12T22:03:15.462Z,66.09
2022-09-12T22:05:42.573Z,63.33
2022-09-12T22:08:10.546Z,66.88
2022-09-12T22:10:38.469Z,65.02
2022-09-12T22:13:05.381Z,68.56
2022-09-12T22:15:40.841Z,69.70
2022-09-12T22:18:07.701Z,70.55
2022-09-12T22:20:34.066Z,71.07
2022-09-12T22:23:24.633Z,71.61
2022-09-12T22:25:55.076Z,72.25
2022-09-12T22:28:21.420Z,72.84
2022-09-12T22:30:48.584Z,73.57
2022-09-12T22:33:15.381Z,74.26
2022-09-12T22:35:42.364Z,74.93
2022-09-12T22:38:09.039Z,74.85
2022-09-12T22:40:35.406Z,74.90
2022-09-12T22:43:02.295Z,75.36
2022-09-12T22:45:28.765Z,75.50
2022-09-12T22:47:56.368Z,75.69
2022-09-12T22:50:25.642Z,75.85
2022-09-12T22:52:52.572Z,75.93
2022-09-12T22:55:19.031Z,76.11
2022-09-12T22:57:45.410Z,76.88
2022-09-12T23:00:12.310Z,76.64
2022-09-12T23:02:38.694Z,77.00
2022-09-12T23:05:05.809Z,76.94
2022-09-12T23:07:32.455Z,77.58
2022-09-12T23:09:58.799Z,77.50
2022-09-12T23:12:25.169Z,78.08
2022-09-12T23:14:51.490Z,78.75
2022-09-12T23:17:18.134Z,78.73
2022-09-12T23:19:48.512Z,78.74
2022-09-12T23:22:14.993Z,77.69
2022-09-12T23:24:41.496Z,77.95
2022-09-12T23:27:08.244Z,78.33
2022-09-12T23:29:35.367Z,77.93
2022-09-12T23:32:03.393Z,78.79
2022-09-12T23:34:29.908Z,77.84
2022-09-12T23:36:56.410Z,78.23
2022-09-12T23:39:25.881Z,78.66
2022-09-12T23:41:52.271Z,78.38
2022-09-12T23:44:18.645Z,78.07
2022-09-12T23:46:45.103Z,78.92
2022-09-12T23:49:11.526Z,79.00
2022-09-12T23:51:37.893Z,79.00
2022-09-12T23:54:04.377Z,79.06
2022-09-12T23:56:30.739Z,78.88
2022-09-12T23:58:57.157Z,79.00
